N345PR KBJC-KLXV
Flight info
| Callsign | N345PR |
|---|---|
| Flight time | 0h 22m |
| Altitude | 20000 |
| Route | BREWS FUNDS DAVVY |
| Aircraft | B350/L-SBGRW/S |
Departure
| Time | 2026-04-25 02:00 |
|---|---|
| Airport | Rocky Mountain Metropolitan Airport (KBJC) |
Arrival
| Time | 2026-04-25 02:23 |
|---|---|
| Airport | Lake County Airport (KLXV) |
| Time | Latitude | Longitude | Altitude | Speed | Heading |
|---|---|---|---|---|---|
| 2026-04-25 01:52 | 39.90615 | -105.10501 | 5625 ft | 0 kts | 162° |
| 2026-04-25 01:57 | 39.90601 | -105.10501 | 5602 ft | 6 kts | 189° |
| 2026-04-25 01:58 | 39.90529 | -105.10525 | 5596 ft | 15 kts | 202° |
| 2026-04-25 01:58 | 39.90441 | -105.10519 | 5588 ft | 16 kts | 128° |
| 2026-04-25 01:58 | 39.90369 | -105.10383 | 5582 ft | 19 kts | 126° |
| 2026-04-25 01:58 | 39.90283 | -105.10219 | 5573 ft | 20 kts | 122° |
| 2026-04-25 01:59 | 39.90204 | -105.10145 | 5570 ft | 12 kts | 217° |
| 2026-04-25 01:59 | 39.90151 | -105.10218 | 5570 ft | 9 kts | 293° |
| 2026-04-25 01:59 | 39.90156 | -105.10229 | 5572 ft | 0 kts | 308° |
| 2026-04-25 02:00 | 39.90227 | -105.10365 | 5575 ft | 54 kts | 305° |
| 2026-04-25 02:00 | 39.90570 | -105.11007 | 5609 ft | 114 kts | 304° |
| 2026-04-25 02:00 | 39.91102 | -105.11961 | 5842 ft | 149 kts | 304° |
| 2026-04-25 02:00 | 39.91797 | -105.13094 | 6359 ft | 168 kts | 309° |
| 2026-04-25 02:01 | 39.92527 | -105.14355 | 6844 ft | 181 kts | 296° |
| 2026-04-25 02:01 | 39.92807 | -105.15945 | 7346 ft | 183 kts | 270° |
| 2026-04-25 02:01 | 39.92522 | -105.17564 | 7843 ft | 189 kts | 245° |
| 2026-04-25 02:01 | 39.91598 | -105.18786 | 8476 ft | 196 kts | 209° |
| 2026-04-25 02:02 | 39.90211 | -105.18810 | 9133 ft | 210 kts | 173° |
| 2026-04-25 02:02 | 39.88803 | -105.18333 | 9592 ft | 215 kts | 172° |
| 2026-04-25 02:02 | 39.87357 | -105.17816 | 10125 ft | 214 kts | 171° |
| 2026-04-25 02:02 | 39.85925 | -105.17272 | 10630 ft | 215 kts | 171° |
| 2026-04-25 02:03 | 39.84499 | -105.16726 | 11231 ft | 213 kts | 170° |
| 2026-04-25 02:03 | 39.83077 | -105.16205 | 11783 ft | 211 kts | 176° |
| 2026-04-25 02:03 | 39.81624 | -105.15974 | 12344 ft | 210 kts | 180° |
| 2026-04-25 02:03 | 39.80189 | -105.15760 | 13016 ft | 205 kts | 179° |
| 2026-04-25 02:04 | 39.78793 | -105.15605 | 13709 ft | 199 kts | 186° |
| 2026-04-25 02:04 | 39.77874 | -105.15638 | 14022 ft | 201 kts | 187° |
| 2026-04-25 02:04 | 39.76453 | -105.15658 | 14473 ft | 207 kts | 185° |
| 2026-04-25 02:04 | 39.75024 | -105.15713 | 15001 ft | 204 kts | 190° |
| 2026-04-25 02:05 | 39.73618 | -105.15883 | 15539 ft | 203 kts | 193° |
| 2026-04-25 02:05 | 39.72225 | -105.16238 | 15985 ft | 206 kts | 197° |
| 2026-04-25 02:05 | 39.70821 | -105.16636 | 16488 ft | 206 kts | 196° |
| 2026-04-25 02:05 | 39.69412 | -105.16957 | 17021 ft | 206 kts | 194° |
| 2026-04-25 02:06 | 39.67987 | -105.17312 | 17460 ft | 210 kts | 200° |
| 2026-04-25 02:06 | 39.66700 | -105.18169 | 17908 ft | 207 kts | 223° |
| 2026-04-25 02:06 | 39.65836 | -105.19617 | 18448 ft | 200 kts | 240° |
| 2026-04-25 02:06 | 39.65272 | -105.21233 | 18996 ft | 197 kts | 255° |
| 2026-04-25 02:07 | 39.65098 | -105.23037 | 19251 ft | 206 kts | 266° |
| 2026-04-25 02:07 | 39.65024 | -105.24846 | 19712 ft | 206 kts | 263° |
| 2026-04-25 02:07 | 39.64867 | -105.26779 | 19729 ft | 229 kts | 263° |
| 2026-04-25 02:07 | 39.64712 | -105.28922 | 19732 ft | 247 kts | 264° |
| 2026-04-25 02:08 | 39.64569 | -105.31196 | 19732 ft | 260 kts | 264° |
| 2026-04-25 02:08 | 39.64414 | -105.33575 | 19730 ft | 269 kts | 264° |
| 2026-04-25 02:08 | 39.64246 | -105.36028 | 19732 ft | 276 kts | 264° |
| 2026-04-25 02:08 | 39.64075 | -105.38530 | 19731 ft | 281 kts | 264° |
| 2026-04-25 02:09 | 39.63904 | -105.41074 | 19733 ft | 284 kts | 264° |
| 2026-04-25 02:09 | 39.63730 | -105.43636 | 19739 ft | 286 kts | 264° |
| 2026-04-25 02:09 | 39.63551 | -105.46216 | 19740 ft | 288 kts | 264° |
| 2026-04-25 02:09 | 39.63374 | -105.48811 | 19746 ft | 289 kts | 264° |
| 2026-04-25 02:10 | 39.63195 | -105.51404 | 19751 ft | 289 kts | 264° |
| 2026-04-25 02:10 | 39.63014 | -105.54001 | 19750 ft | 288 kts | 264° |
| 2026-04-25 02:10 | 39.62834 | -105.56589 | 19758 ft | 288 kts | 264° |
| 2026-04-25 02:10 | 39.62657 | -105.59174 | 19765 ft | 288 kts | 264° |
| 2026-04-25 02:11 | 39.62476 | -105.61759 | 19762 ft | 288 kts | 264° |
| 2026-04-25 02:11 | 39.62292 | -105.64345 | 19766 ft | 288 kts | 264° |
| 2026-04-25 02:11 | 39.62111 | -105.66925 | 19770 ft | 288 kts | 264° |
| 2026-04-25 02:11 | 39.61929 | -105.69517 | 19767 ft | 286 kts | 264° |
| 2026-04-25 02:12 | 39.61749 | -105.72091 | 19763 ft | 288 kts | 263° |
| 2026-04-25 02:12 | 39.61566 | -105.74669 | 19773 ft | 286 kts | 264° |
| 2026-04-25 02:12 | 39.61382 | -105.77242 | 19768 ft | 286 kts | 263° |
| 2026-04-25 02:12 | 39.61198 | -105.79775 | 19778 ft | 287 kts | 264° |
| 2026-04-25 02:13 | 39.61014 | -105.82347 | 19777 ft | 286 kts | 264° |
| 2026-04-25 02:13 | 39.60832 | -105.84924 | 19774 ft | 287 kts | 264° |
| 2026-04-25 02:13 | 39.60644 | -105.87504 | 19781 ft | 287 kts | 264° |
| 2026-04-25 02:13 | 39.60456 | -105.90082 | 19786 ft | 288 kts | 264° |
| 2026-04-25 02:14 | 39.60271 | -105.92662 | 19789 ft | 287 kts | 264° |
| 2026-04-25 02:14 | 39.60083 | -105.95235 | 19789 ft | 286 kts | 264° |
| 2026-04-25 02:14 | 39.59851 | -105.97788 | 19783 ft | 285 kts | 260° |
| 2026-04-25 02:14 | 39.59413 | -106.00295 | 19796 ft | 285 kts | 256° |
| 2026-04-25 02:15 | 39.58967 | -106.02797 | 19789 ft | 285 kts | 258° |
| 2026-04-25 02:15 | 39.58605 | -106.05317 | 19790 ft | 284 kts | 259° |
| 2026-04-25 02:15 | 39.58245 | -106.07833 | 19791 ft | 284 kts | 259° |
| 2026-04-25 02:15 | 39.57854 | -106.10359 | 19652 ft | 289 kts | 258° |
| 2026-04-25 02:16 | 39.57454 | -106.12949 | 19277 ft | 297 kts | 258° |
| 2026-04-25 02:16 | 39.57050 | -106.15611 | 18929 ft | 303 kts | 258° |
| 2026-04-25 02:16 | 39.56648 | -106.18321 | 18545 ft | 309 kts | 258° |
| 2026-04-25 02:16 | 39.56235 | -106.21010 | 18155 ft | 301 kts | 258° |
| 2026-04-25 02:17 | 39.55822 | -106.23650 | 17719 ft | 296 kts | 258° |
| 2026-04-25 02:17 | 39.55429 | -106.26219 | 17284 ft | 292 kts | 258° |
| 2026-04-25 02:17 | 39.55008 | -106.28782 | 16855 ft | 289 kts | 253° |
| 2026-04-25 02:17 | 39.54202 | -106.31079 | 16817 ft | 272 kts | 238° |
| 2026-04-25 02:18 | 39.53029 | -106.32915 | 16835 ft | 260 kts | 226° |
| 2026-04-25 02:18 | 39.51607 | -106.34319 | 16810 ft | 254 kts | 214° |
| 2026-04-25 02:18 | 39.49967 | -106.35274 | 16368 ft | 266 kts | 201° |
| 2026-04-25 02:18 | 39.48099 | -106.35718 | 15814 ft | 279 kts | 188° |
| 2026-04-25 02:19 | 39.46155 | -106.35636 | 15279 ft | 278 kts | 182° |
| 2026-04-25 02:19 | 39.44229 | -106.35517 | 14763 ft | 276 kts | 183° |
| 2026-04-25 02:19 | 39.42318 | -106.35424 | 14245 ft | 273 kts | 183° |
| 2026-04-25 02:19 | 39.40430 | -106.35329 | 13741 ft | 271 kts | 183° |
| 2026-04-25 02:20 | 39.38548 | -106.35219 | 13184 ft | 270 kts | 182° |
| 2026-04-25 02:20 | 39.36703 | -106.34885 | 12806 ft | 264 kts | 174° |
| 2026-04-25 02:20 | 39.34920 | -106.34468 | 12460 ft | 256 kts | 175° |
| 2026-04-25 02:20 | 39.33200 | -106.34097 | 12134 ft | 245 kts | 176° |
| 2026-04-25 02:21 | 39.31561 | -106.33741 | 11862 ft | 226 kts | 175° |
| 2026-04-25 02:21 | 39.30115 | -106.33419 | 11618 ft | 198 kts | 174° |
| 2026-04-25 02:21 | 39.28833 | -106.33136 | 11392 ft | 178 kts | 175° |
| 2026-04-25 02:21 | 39.27654 | -106.32883 | 11143 ft | 170 kts | 174° |
| 2026-04-25 02:22 | 39.26500 | -106.32632 | 10848 ft | 167 kts | 174° |
| 2026-04-25 02:22 | 39.25383 | -106.32390 | 10567 ft | 159 kts | 175° |
| 2026-04-25 02:22 | 39.24318 | -106.32157 | 10304 ft | 152 kts | 174° |
| 2026-04-25 02:22 | 39.23301 | -106.31932 | 10063 ft | 145 kts | 174° |
| 2026-04-25 02:23 | 39.22350 | -106.31730 | 9942 ft | 128 kts | 174° |
| 2026-04-25 02:23 | 39.21777 | -106.31607 | 9934 ft | 36 kts | 168° |
| 2026-04-25 02:23 | 39.21576 | -106.31567 | 9929 ft | 31 kts | 172° |
| 2026-04-25 02:23 | 39.21503 | -106.31541 | 9930 ft | 4 kts | 341° |
| 2026-04-25 02:24 | 39.21595 | -106.31566 | 9932 ft | 26 kts | 352° |
| 2026-04-25 02:24 | 39.21817 | -106.31615 | 9935 ft | 34 kts | 350° |
| 2026-04-25 02:24 | 39.22045 | -106.31665 | 9939 ft | 32 kts | 350° |
| 2026-04-25 02:24 | 39.22255 | -106.31708 | 9934 ft | 29 kts | 351° |
| 2026-04-25 02:25 | 39.22425 | -106.31745 | 9936 ft | 18 kts | 352° |
| 2026-04-25 02:25 | 39.22484 | -106.31697 | 9938 ft | 11 kts | 78° |
| 2026-04-25 02:25 | 39.22467 | -106.31638 | 9936 ft | 0 kts | 168° |